<?xml version="1.0" encoding="UTF-8" standalone="no" ?>
<gpx xmlns="http://www.topografix.com/GPX/1/1" xmlns:xsi="http://www.w3.org/2001/XMLSchema-instance" xsi:schemaLocation="http://www.topografix.com/GPX/1/1 http://www.topografix.com/GPX/1/1/gpx.xsd" version="1.1" creator="VisuGPX - https://www.visugpx.com">
  <metadata>
    <name>Coueron_MemoireOuvriereVisiteGuidee_8km</name>
    <desc><![CDATA[gnerando idor:9677901_9749545]]></desc>
  </metadata>
  <trk>
    <name><![CDATA[Coueron_MemoireOuvriere_7.3km-9677901]]></name>
    <extensions>
      <line xmlns="http://www.topografix.com/GPX/gpx_style/0/2">
        <color>00FF00</color>
        <width>4</width>
      </line>
    </extensions>
    <trkseg>
      <trkpt lat="47.20889" lon="-1.71967">
        <ele>9</ele>
        <time>2023-11-01T14:54:13Z</time>
      </trkpt>
      <trkpt lat="47.2089" lon="-1.72005">
        <ele>9</ele>
        <time>2023-11-01T14:54:47Z</time>
      </trkpt>
      <trkpt lat="47.20888" lon="-1.72007">
        <ele>9</ele>
        <time>2023-11-01T14:54:51Z</time>
      </trkpt>
      <trkpt lat="47.20873" lon="-1.72007">
        <ele>8</ele>
        <time>2023-11-01T14:55:11Z</time>
      </trkpt>
      <trkpt lat="47.20872" lon="-1.72024">
        <ele>8</ele>
        <time>2023-11-01T14:55:26Z</time>
      </trkpt>
      <trkpt lat="47.20878" lon="-1.72037">
        <ele>8</ele>
        <time>2023-11-01T14:55:40Z</time>
      </trkpt>
      <trkpt lat="47.20884" lon="-1.72062">
        <ele>8</ele>
        <time>2023-11-01T14:56:04Z</time>
      </trkpt>
      <trkpt lat="47.20874" lon="-1.72027">
        <ele>8</ele>
        <time>2023-11-01T14:56:39Z</time>
      </trkpt>
      <trkpt lat="47.20854" lon="-1.72021">
        <ele>7</ele>
        <time>2023-11-01T14:57:06Z</time>
      </trkpt>
      <trkpt lat="47.20859" lon="-1.72095">
        <ele>6</ele>
        <time>2023-11-01T14:58:14Z</time>
      </trkpt>
      <trkpt lat="47.20862" lon="-1.72191">
        <ele>5</ele>
        <time>2023-11-01T14:59:41Z</time>
      </trkpt>
      <trkpt lat="47.20873" lon="-1.7235">
        <ele>6</ele>
        <time>2023-11-01T15:02:06Z</time>
      </trkpt>
      <trkpt lat="47.20875" lon="-1.72383">
        <ele>7</ele>
        <time>2023-11-01T15:02:36Z</time>
      </trkpt>
      <trkpt lat="47.20875" lon="-1.72416">
        <ele>7</ele>
        <time>2023-11-01T15:03:06Z</time>
      </trkpt>
      <trkpt lat="47.20881" lon="-1.72484">
        <ele>7</ele>
        <time>2023-11-01T15:04:08Z</time>
      </trkpt>
      <trkpt lat="47.20884" lon="-1.72499">
        <ele>7</ele>
        <time>2023-11-01T15:04:22Z</time>
      </trkpt>
      <trkpt lat="47.20888" lon="-1.72553">
        <ele>6</ele>
        <time>2023-11-01T15:05:11Z</time>
      </trkpt>
      <trkpt lat="47.20886" lon="-1.72613">
        <ele>5</ele>
        <time>2023-11-01T15:06:06Z</time>
      </trkpt>
      <trkpt lat="47.20879" lon="-1.72641">
        <ele>4</ele>
        <time>2023-11-01T15:06:33Z</time>
      </trkpt>
      <trkpt lat="47.20878" lon="-1.72687">
        <ele>4</ele>
        <time>2023-11-01T15:07:14Z</time>
      </trkpt>
      <trkpt lat="47.20883" lon="-1.72799">
        <ele>5</ele>
        <time>2023-11-01T15:08:56Z</time>
      </trkpt>
      <trkpt lat="47.20872" lon="-1.72831">
        <ele>4</ele>
        <time>2023-11-01T15:09:29Z</time>
      </trkpt>
      <trkpt lat="47.20859" lon="-1.72867">
        <ele>3</ele>
        <time>2023-11-01T15:10:06Z</time>
      </trkpt>
      <trkpt lat="47.20857" lon="-1.72898">
        <ele>2</ele>
        <time>2023-11-01T15:10:34Z</time>
      </trkpt>
      <trkpt lat="47.20873" lon="-1.7292">
        <ele>2</ele>
        <time>2023-11-01T15:11:03Z</time>
      </trkpt>
      <trkpt lat="47.20904" lon="-1.72913">
        <ele>4</ele>
        <time>2023-11-01T15:11:45Z</time>
      </trkpt>
      <trkpt lat="47.20925" lon="-1.72984">
        <ele>4</ele>
        <time>2023-11-01T15:12:55Z</time>
      </trkpt>
      <trkpt lat="47.20915" lon="-1.72992">
        <ele>3</ele>
        <time>2023-11-01T15:13:10Z</time>
      </trkpt>
      <trkpt lat="47.20951" lon="-1.73094">
        <ele>4</ele>
        <time>2023-11-01T15:14:54Z</time>
      </trkpt>
      <trkpt lat="47.20964" lon="-1.73147">
        <ele>4</ele>
        <time>2023-11-01T15:15:46Z</time>
      </trkpt>
      <trkpt lat="47.21021" lon="-1.73119">
        <ele>7</ele>
        <time>2023-11-01T15:17:06Z</time>
      </trkpt>
      <trkpt lat="47.21031" lon="-1.7313">
        <ele>7</ele>
        <time>2023-11-01T15:17:22Z</time>
      </trkpt>
      <trkpt lat="47.2104" lon="-1.73171">
        <ele>5</ele>
        <time>2023-11-01T15:18:01Z</time>
      </trkpt>
      <trkpt lat="47.21047" lon="-1.73213">
        <ele>5</ele>
        <time>2023-11-01T15:18:41Z</time>
      </trkpt>
      <trkpt lat="47.21046" lon="-1.73233">
        <ele>5</ele>
        <time>2023-11-01T15:18:59Z</time>
      </trkpt>
      <trkpt lat="47.21058" lon="-1.73239">
        <ele>5</ele>
        <time>2023-11-01T15:19:16Z</time>
      </trkpt>
      <trkpt lat="47.21086" lon="-1.73231">
        <ele>5</ele>
        <time>2023-11-01T15:19:54Z</time>
      </trkpt>
      <trkpt lat="47.21095" lon="-1.73225">
        <ele>5</ele>
        <time>2023-11-01T15:20:07Z</time>
      </trkpt>
      <trkpt lat="47.21104" lon="-1.73217">
        <ele>6</ele>
        <time>2023-11-01T15:20:21Z</time>
      </trkpt>
      <trkpt lat="47.21108" lon="-1.73208">
        <ele>6</ele>
        <time>2023-11-01T15:20:31Z</time>
      </trkpt>
      <trkpt lat="47.21124" lon="-1.73202">
        <ele>6</ele>
        <time>2023-11-01T15:20:53Z</time>
      </trkpt>
      <trkpt lat="47.21114" lon="-1.73337">
        <ele>5</ele>
        <time>2023-11-01T15:22:56Z</time>
      </trkpt>
      <trkpt lat="47.2111" lon="-1.73486">
        <ele>5</ele>
        <time>2023-11-01T15:25:11Z</time>
      </trkpt>
      <trkpt lat="47.21114" lon="-1.73615">
        <ele>4</ele>
        <time>2023-11-01T15:27:08Z</time>
      </trkpt>
      <trkpt lat="47.21212" lon="-1.7356">
        <ele>4</ele>
        <time>2023-11-01T15:29:28Z</time>
      </trkpt>
      <trkpt lat="47.21296" lon="-1.73513">
        <ele>8</ele>
        <time>2023-11-01T15:31:28Z</time>
      </trkpt>
      <trkpt lat="47.21252" lon="-1.73344">
        <ele>10</ele>
        <time>2023-11-01T15:34:12Z</time>
      </trkpt>
      <trkpt lat="47.2121" lon="-1.73234">
        <ele>8</ele>
        <time>2023-11-01T15:36:06Z</time>
      </trkpt>
      <trkpt lat="47.21192" lon="-1.73183">
        <ele>8</ele>
        <time>2023-11-01T15:36:59Z</time>
      </trkpt>
      <trkpt lat="47.21183" lon="-1.7316">
        <ele>8</ele>
        <time>2023-11-01T15:37:23Z</time>
      </trkpt>
      <trkpt lat="47.21176" lon="-1.73142">
        <ele>8</ele>
        <time>2023-11-01T15:37:41Z</time>
      </trkpt>
      <trkpt lat="47.21166" lon="-1.73136">
        <ele>8</ele>
        <time>2023-11-01T15:37:56Z</time>
      </trkpt>
      <trkpt lat="47.21166" lon="-1.73132">
        <ele>8</ele>
        <time>2023-11-01T15:37:59Z</time>
      </trkpt>
      <trkpt lat="47.21162" lon="-1.73124">
        <ele>7</ele>
        <time>2023-11-01T15:38:08Z</time>
      </trkpt>
      <trkpt lat="47.21142" lon="-1.7309">
        <ele>8</ele>
        <time>2023-11-01T15:38:49Z</time>
      </trkpt>
      <trkpt lat="47.2112" lon="-1.73046">
        <ele>9</ele>
        <time>2023-11-01T15:39:39Z</time>
      </trkpt>
      <trkpt lat="47.21111" lon="-1.73025">
        <ele>9</ele>
        <time>2023-11-01T15:40:01Z</time>
      </trkpt>
      <trkpt lat="47.2109" lon="-1.7303">
        <ele>10</ele>
        <time>2023-11-01T15:40:30Z</time>
      </trkpt>
      <trkpt lat="47.21062" lon="-1.73066">
        <ele>9</ele>
        <time>2023-11-01T15:41:19Z</time>
      </trkpt>
      <trkpt lat="47.21089" lon="-1.73035">
        <ele>9</ele>
        <time>2023-11-01T15:42:05Z</time>
      </trkpt>
      <trkpt lat="47.21073" lon="-1.73048">
        <ele>9</ele>
        <time>2023-11-01T15:42:29Z</time>
      </trkpt>
      <trkpt lat="47.21053" lon="-1.72973">
        <ele>10</ele>
        <time>2023-11-01T15:43:42Z</time>
      </trkpt>
      <trkpt lat="47.21039" lon="-1.72922">
        <ele>11</ele>
        <time>2023-11-01T15:44:32Z</time>
      </trkpt>
      <trkpt lat="47.21032" lon="-1.72893">
        <ele>11</ele>
        <time>2023-11-01T15:45:00Z</time>
      </trkpt>
      <trkpt lat="47.21031" lon="-1.72873">
        <ele>12</ele>
        <time>2023-11-01T15:45:18Z</time>
      </trkpt>
      <trkpt lat="47.21018" lon="-1.72848">
        <ele>12</ele>
        <time>2023-11-01T15:45:47Z</time>
      </trkpt>
      <trkpt lat="47.21026" lon="-1.72836">
        <ele>13</ele>
        <time>2023-11-01T15:46:02Z</time>
      </trkpt>
      <trkpt lat="47.2103" lon="-1.72822">
        <ele>13</ele>
        <time>2023-11-01T15:46:16Z</time>
      </trkpt>
      <trkpt lat="47.21045" lon="-1.72815">
        <ele>14</ele>
        <time>2023-11-01T15:46:37Z</time>
      </trkpt>
      <trkpt lat="47.21066" lon="-1.72772">
        <ele>15</ele>
        <time>2023-11-01T15:47:25Z</time>
      </trkpt>
      <trkpt lat="47.21073" lon="-1.72747">
        <ele>16</ele>
        <time>2023-11-01T15:47:49Z</time>
      </trkpt>
      <trkpt lat="47.21084" lon="-1.72742">
        <ele>16</ele>
        <time>2023-11-01T15:48:05Z</time>
      </trkpt>
      <trkpt lat="47.21091" lon="-1.7271">
        <ele>16</ele>
        <time>2023-11-01T15:48:35Z</time>
      </trkpt>
      <trkpt lat="47.21084" lon="-1.72681">
        <ele>16</ele>
        <time>2023-11-01T15:49:03Z</time>
      </trkpt>
      <trkpt lat="47.21078" lon="-1.72628">
        <ele>16</ele>
        <time>2023-11-01T15:49:52Z</time>
      </trkpt>
      <trkpt lat="47.21074" lon="-1.7258">
        <ele>17</ele>
        <time>2023-11-01T15:50:36Z</time>
      </trkpt>
      <trkpt lat="47.21054" lon="-1.72534">
        <ele>17</ele>
        <time>2023-11-01T15:51:25Z</time>
      </trkpt>
      <trkpt lat="47.21042" lon="-1.72493">
        <ele>17</ele>
        <time>2023-11-01T15:52:06Z</time>
      </trkpt>
      <trkpt lat="47.21034" lon="-1.7245">
        <ele>18</ele>
        <time>2023-11-01T15:52:46Z</time>
      </trkpt>
      <trkpt lat="47.21031" lon="-1.72428">
        <ele>19</ele>
        <time>2023-11-01T15:53:06Z</time>
      </trkpt>
      <trkpt lat="47.21023" lon="-1.72412">
        <ele>18</ele>
        <time>2023-11-01T15:53:24Z</time>
      </trkpt>
      <trkpt lat="47.21022" lon="-1.7238">
        <ele>18</ele>
        <time>2023-11-01T15:53:53Z</time>
      </trkpt>
      <trkpt lat="47.21023" lon="-1.72337">
        <ele>18</ele>
        <time>2023-11-01T15:54:32Z</time>
      </trkpt>
      <trkpt lat="47.21024" lon="-1.72298">
        <ele>19</ele>
        <time>2023-11-01T15:55:08Z</time>
      </trkpt>
      <trkpt lat="47.21021" lon="-1.7226">
        <ele>19</ele>
        <time>2023-11-01T15:55:42Z</time>
      </trkpt>
      <trkpt lat="47.21017" lon="-1.72235">
        <ele>19</ele>
        <time>2023-11-01T15:56:06Z</time>
      </trkpt>
      <trkpt lat="47.21027" lon="-1.72203">
        <ele>20</ele>
        <time>2023-11-01T15:56:38Z</time>
      </trkpt>
      <trkpt lat="47.21028" lon="-1.7219">
        <ele>20</ele>
        <time>2023-11-01T15:56:50Z</time>
      </trkpt>
      <trkpt lat="47.21024" lon="-1.72168">
        <ele>20</ele>
        <time>2023-11-01T15:57:10Z</time>
      </trkpt>
      <trkpt lat="47.21012" lon="-1.72124">
        <ele>19</ele>
        <time>2023-11-01T15:57:53Z</time>
      </trkpt>
      <trkpt lat="47.21007" lon="-1.72081">
        <ele>19</ele>
        <time>2023-11-01T15:58:33Z</time>
      </trkpt>
      <trkpt lat="47.21008" lon="-1.72022">
        <ele>21</ele>
        <time>2023-11-01T15:59:26Z</time>
      </trkpt>
      <trkpt lat="47.21016" lon="-1.7202">
        <ele>22</ele>
        <time>2023-11-01T15:59:37Z</time>
      </trkpt>
      <trkpt lat="47.21011" lon="-1.7201">
        <ele>22</ele>
        <time>2023-11-01T15:59:48Z</time>
      </trkpt>
      <trkpt lat="47.21011" lon="-1.71992">
        <ele>22</ele>
        <time>2023-11-01T16:00:05Z</time>
      </trkpt>
      <trkpt lat="47.21037" lon="-1.71985">
        <ele>23</ele>
        <time>2023-11-01T16:00:40Z</time>
      </trkpt>
      <trkpt lat="47.21112" lon="-1.71969">
        <ele>26</ele>
        <time>2023-11-01T16:02:21Z</time>
      </trkpt>
      <trkpt lat="47.21113" lon="-1.71925">
        <ele>27</ele>
        <time>2023-11-01T16:03:01Z</time>
      </trkpt>
      <trkpt lat="47.21109" lon="-1.71861">
        <ele>28</ele>
        <time>2023-11-01T16:03:59Z</time>
      </trkpt>
      <trkpt lat="47.21102" lon="-1.71814">
        <ele>28</ele>
        <time>2023-11-01T16:04:43Z</time>
      </trkpt>
      <trkpt lat="47.21101" lon="-1.71769">
        <ele>28</ele>
        <time>2023-11-01T16:05:24Z</time>
      </trkpt>
      <trkpt lat="47.21104" lon="-1.71712">
        <ele>28</ele>
        <time>2023-11-01T16:06:15Z</time>
      </trkpt>
      <trkpt lat="47.21107" lon="-1.71655">
        <ele>27</ele>
        <time>2023-11-01T16:07:07Z</time>
      </trkpt>
      <trkpt lat="47.21109" lon="-1.716">
        <ele>25</ele>
        <time>2023-11-01T16:07:57Z</time>
      </trkpt>
      <trkpt lat="47.21107" lon="-1.7149">
        <ele>19</ele>
        <time>2023-11-01T16:09:37Z</time>
      </trkpt>
      <trkpt lat="47.21109" lon="-1.71416">
        <ele>16</ele>
        <time>2023-11-01T16:10:44Z</time>
      </trkpt>
      <trkpt lat="47.21118" lon="-1.71351">
        <ele>19</ele>
        <time>2023-11-01T16:11:44Z</time>
      </trkpt>
      <trkpt lat="47.21131" lon="-1.71338">
        <ele>20</ele>
        <time>2023-11-01T16:12:05Z</time>
      </trkpt>
      <trkpt lat="47.21148" lon="-1.71315">
        <ele>21</ele>
        <time>2023-11-01T16:12:36Z</time>
      </trkpt>
      <trkpt lat="47.21179" lon="-1.71366">
        <ele>23</ele>
        <time>2023-11-01T16:13:38Z</time>
      </trkpt>
      <trkpt lat="47.21198" lon="-1.7139">
        <ele>25</ele>
        <time>2023-11-01T16:14:11Z</time>
      </trkpt>
      <trkpt lat="47.2123" lon="-1.71398">
        <ele>26</ele>
        <time>2023-11-01T16:14:55Z</time>
      </trkpt>
      <trkpt lat="47.21262" lon="-1.71391">
        <ele>27</ele>
        <time>2023-11-01T16:15:38Z</time>
      </trkpt>
      <trkpt lat="47.21309" lon="-1.71376">
        <ele>28</ele>
        <time>2023-11-01T16:16:42Z</time>
      </trkpt>
      <trkpt lat="47.21363" lon="-1.71359">
        <ele>29</ele>
        <time>2023-11-01T16:17:56Z</time>
      </trkpt>
      <trkpt lat="47.21377" lon="-1.71349">
        <ele>29</ele>
        <time>2023-11-01T16:18:17Z</time>
      </trkpt>
      <trkpt lat="47.21379" lon="-1.71358">
        <ele>29</ele>
        <time>2023-11-01T16:18:25Z</time>
      </trkpt>
      <trkpt lat="47.21382" lon="-1.71379">
        <ele>29</ele>
        <time>2023-11-01T16:18:45Z</time>
      </trkpt>
      <trkpt lat="47.21384" lon="-1.71388">
        <ele>29</ele>
        <time>2023-11-01T16:18:53Z</time>
      </trkpt>
      <trkpt lat="47.21383" lon="-1.71395">
        <ele>29</ele>
        <time>2023-11-01T16:19:00Z</time>
      </trkpt>
      <trkpt lat="47.21385" lon="-1.71397">
        <ele>29</ele>
        <time>2023-11-01T16:19:03Z</time>
      </trkpt>
      <trkpt lat="47.2132" lon="-1.71424">
        <ele>29</ele>
        <time>2023-11-01T16:20:33Z</time>
      </trkpt>
      <trkpt lat="47.21334" lon="-1.7152">
        <ele>29</ele>
        <time>2023-11-01T16:22:02Z</time>
      </trkpt>
      <trkpt lat="47.21389" lon="-1.71514">
        <ele>29</ele>
        <time>2023-11-01T16:23:16Z</time>
      </trkpt>
      <trkpt lat="47.21389" lon="-1.7148">
        <ele>29</ele>
        <time>2023-11-01T16:23:46Z</time>
      </trkpt>
      <trkpt lat="47.2139" lon="-1.71465">
        <ele>29</ele>
        <time>2023-11-01T16:24:00Z</time>
      </trkpt>
      <trkpt lat="47.21435" lon="-1.7146">
        <ele>29</ele>
        <time>2023-11-01T16:25:00Z</time>
      </trkpt>
      <trkpt lat="47.21463" lon="-1.71448">
        <ele>28</ele>
        <time>2023-11-01T16:25:39Z</time>
      </trkpt>
      <trkpt lat="47.21476" lon="-1.71441">
        <ele>28</ele>
        <time>2023-11-01T16:25:58Z</time>
      </trkpt>
      <trkpt lat="47.21489" lon="-1.71429">
        <ele>28</ele>
        <time>2023-11-01T16:26:18Z</time>
      </trkpt>
      <trkpt lat="47.21493" lon="-1.7143">
        <ele>28</ele>
        <time>2023-11-01T16:26:24Z</time>
      </trkpt>
      <trkpt lat="47.21487" lon="-1.71398">
        <ele>29</ele>
        <time>2023-11-01T16:26:54Z</time>
      </trkpt>
      <trkpt lat="47.21476" lon="-1.71373">
        <ele>29</ele>
        <time>2023-11-01T16:27:21Z</time>
      </trkpt>
      <trkpt lat="47.21462" lon="-1.71346">
        <ele>30</ele>
        <time>2023-11-01T16:27:52Z</time>
      </trkpt>
      <trkpt lat="47.21446" lon="-1.71322">
        <ele>30</ele>
        <time>2023-11-01T16:28:22Z</time>
      </trkpt>
      <trkpt lat="47.21423" lon="-1.7133">
        <ele>30</ele>
        <time>2023-11-01T16:28:54Z</time>
      </trkpt>
      <trkpt lat="47.21405" lon="-1.71338">
        <ele>30</ele>
        <time>2023-11-01T16:29:19Z</time>
      </trkpt>
      <trkpt lat="47.21384" lon="-1.71298">
        <ele>29</ele>
        <time>2023-11-01T16:30:04Z</time>
      </trkpt>
      <trkpt lat="47.21384" lon="-1.71286">
        <ele>30</ele>
        <time>2023-11-01T16:30:15Z</time>
      </trkpt>
      <trkpt lat="47.21361" lon="-1.71237">
        <ele>29</ele>
        <time>2023-11-01T16:31:09Z</time>
      </trkpt>
      <trkpt lat="47.21342" lon="-1.71193">
        <ele>29</ele>
        <time>2023-11-01T16:31:57Z</time>
      </trkpt>
      <trkpt lat="47.21318" lon="-1.7114">
        <ele>28</ele>
        <time>2023-11-01T16:32:54Z</time>
      </trkpt>
      <trkpt lat="47.21312" lon="-1.71136">
        <ele>28</ele>
        <time>2023-11-01T16:33:03Z</time>
      </trkpt>
      <trkpt lat="47.21275" lon="-1.71129">
        <ele>28</ele>
        <time>2023-11-01T16:33:53Z</time>
      </trkpt>
      <trkpt lat="47.21262" lon="-1.71135">
        <ele>27</ele>
        <time>2023-11-01T16:34:11Z</time>
      </trkpt>
      <trkpt lat="47.21269" lon="-1.71091">
        <ele>29</ele>
        <time>2023-11-01T16:34:52Z</time>
      </trkpt>
      <trkpt lat="47.21274" lon="-1.7103">
        <ele>28</ele>
        <time>2023-11-01T16:35:48Z</time>
      </trkpt>
      <trkpt lat="47.21277" lon="-1.70984">
        <ele>27</ele>
        <time>2023-11-01T16:36:30Z</time>
      </trkpt>
      <trkpt lat="47.21279" lon="-1.70904">
        <ele>26</ele>
        <time>2023-11-01T16:37:42Z</time>
      </trkpt>
      <trkpt lat="47.21287" lon="-1.70826">
        <ele>22</ele>
        <time>2023-11-01T16:38:54Z</time>
      </trkpt>
      <trkpt lat="47.21286" lon="-1.70813">
        <ele>22</ele>
        <time>2023-11-01T16:39:06Z</time>
      </trkpt>
      <trkpt lat="47.21311" lon="-1.70816">
        <ele>22</ele>
        <time>2023-11-01T16:39:39Z</time>
      </trkpt>
      <trkpt lat="47.21336" lon="-1.70754">
        <ele>20</ele>
        <time>2023-11-01T16:40:44Z</time>
      </trkpt>
      <trkpt lat="47.21357" lon="-1.70692">
        <ele>17</ele>
        <time>2023-11-01T16:41:47Z</time>
      </trkpt>
      <trkpt lat="47.2136" lon="-1.70658">
        <ele>16</ele>
        <time>2023-11-01T16:42:18Z</time>
      </trkpt>
      <trkpt lat="47.21362" lon="-1.70616">
        <ele>14</ele>
        <time>2023-11-01T16:42:56Z</time>
      </trkpt>
      <trkpt lat="47.21364" lon="-1.70588">
        <ele>13</ele>
        <time>2023-11-01T16:43:22Z</time>
      </trkpt>
      <trkpt lat="47.21367" lon="-1.7052">
        <ele>11</ele>
        <time>2023-11-01T16:44:24Z</time>
      </trkpt>
      <trkpt lat="47.21367" lon="-1.70453">
        <ele>9</ele>
        <time>2023-11-01T16:45:24Z</time>
      </trkpt>
      <trkpt lat="47.21365" lon="-1.70444">
        <ele>9</ele>
        <time>2023-11-01T16:45:33Z</time>
      </trkpt>
      <trkpt lat="47.21344" lon="-1.704">
        <ele>8</ele>
        <time>2023-11-01T16:46:22Z</time>
      </trkpt>
      <trkpt lat="47.21311" lon="-1.70325">
        <ele>8</ele>
        <time>2023-11-01T16:47:43Z</time>
      </trkpt>
      <trkpt lat="47.2129" lon="-1.70285">
        <ele>8</ele>
        <time>2023-11-01T16:48:29Z</time>
      </trkpt>
      <trkpt lat="47.2129" lon="-1.70344">
        <ele>7</ele>
        <time>2023-11-01T16:49:22Z</time>
      </trkpt>
      <trkpt lat="47.21279" lon="-1.70381">
        <ele>6</ele>
        <time>2023-11-01T16:49:59Z</time>
      </trkpt>
      <trkpt lat="47.21257" lon="-1.70439">
        <ele>6</ele>
        <time>2023-11-01T16:50:59Z</time>
      </trkpt>
      <trkpt lat="47.2124" lon="-1.7047">
        <ele>7</ele>
        <time>2023-11-01T16:51:35Z</time>
      </trkpt>
      <trkpt lat="47.21212" lon="-1.70536">
        <ele>8</ele>
        <time>2023-11-01T16:52:46Z</time>
      </trkpt>
      <trkpt lat="47.21185" lon="-1.70602">
        <ele>10</ele>
        <time>2023-11-01T16:53:55Z</time>
      </trkpt>
      <trkpt lat="47.21162" lon="-1.70666">
        <ele>10</ele>
        <time>2023-11-01T16:55:01Z</time>
      </trkpt>
      <trkpt lat="47.21141" lon="-1.70739">
        <ele>10</ele>
        <time>2023-11-01T16:56:13Z</time>
      </trkpt>
      <trkpt lat="47.2112" lon="-1.70817">
        <ele>9</ele>
        <time>2023-11-01T16:57:29Z</time>
      </trkpt>
      <trkpt lat="47.21101" lon="-1.70856">
        <ele>8</ele>
        <time>2023-11-01T16:58:12Z</time>
      </trkpt>
      <trkpt lat="47.21081" lon="-1.70914">
        <ele>6</ele>
        <time>2023-11-01T16:59:11Z</time>
      </trkpt>
      <trkpt lat="47.21063" lon="-1.71013">
        <ele>7</ele>
        <time>2023-11-01T17:00:44Z</time>
      </trkpt>
      <trkpt lat="47.21051" lon="-1.71061">
        <ele>8</ele>
        <time>2023-11-01T17:01:31Z</time>
      </trkpt>
      <trkpt lat="47.21044" lon="-1.71068">
        <ele>7</ele>
        <time>2023-11-01T17:01:42Z</time>
      </trkpt>
      <trkpt lat="47.21023" lon="-1.7108">
        <ele>7</ele>
        <time>2023-11-01T17:02:12Z</time>
      </trkpt>
      <trkpt lat="47.21018" lon="-1.71104">
        <ele>7</ele>
        <time>2023-11-01T17:02:35Z</time>
      </trkpt>
      <trkpt lat="47.21011" lon="-1.71128">
        <ele>8</ele>
        <time>2023-11-01T17:02:58Z</time>
      </trkpt>
      <trkpt lat="47.20996" lon="-1.71165">
        <ele>8</ele>
        <time>2023-11-01T17:03:38Z</time>
      </trkpt>
      <trkpt lat="47.2098" lon="-1.71205">
        <ele>7</ele>
        <time>2023-11-01T17:04:20Z</time>
      </trkpt>
      <trkpt lat="47.20947" lon="-1.71234">
        <ele>6</ele>
        <time>2023-11-01T17:05:11Z</time>
      </trkpt>
      <trkpt lat="47.20923" lon="-1.71253">
        <ele>5</ele>
        <time>2023-11-01T17:05:47Z</time>
      </trkpt>
      <trkpt lat="47.20883" lon="-1.71278">
        <ele>5</ele>
        <time>2023-11-01T17:06:45Z</time>
      </trkpt>
      <trkpt lat="47.20843" lon="-1.71302">
        <ele>4</ele>
        <time>2023-11-01T17:07:43Z</time>
      </trkpt>
      <trkpt lat="47.20833" lon="-1.71324">
        <ele>5</ele>
        <time>2023-11-01T17:08:07Z</time>
      </trkpt>
      <trkpt lat="47.2083" lon="-1.71352">
        <ele>5</ele>
        <time>2023-11-01T17:08:33Z</time>
      </trkpt>
      <trkpt lat="47.20838" lon="-1.71539">
        <ele>2</ele>
        <time>2023-11-01T17:11:22Z</time>
      </trkpt>
      <trkpt lat="47.20832" lon="-1.71663">
        <ele>5</ele>
        <time>2023-11-01T17:13:15Z</time>
      </trkpt>
      <trkpt lat="47.20841" lon="-1.71827">
        <ele>4</ele>
        <time>2023-11-01T17:15:44Z</time>
      </trkpt>
      <trkpt lat="47.20853" lon="-1.72014">
        <ele>7</ele>
        <time>2023-11-01T17:18:35Z</time>
      </trkpt>
      <trkpt lat="47.20899" lon="-1.71985">
        <ele>10</ele>
        <time>2023-11-01T17:19:41Z</time>
      </trkpt>
    </trkseg>
  </trk>
</gpx>